Current Weather

Gary/Chicago Intl

Gary, Indiana (KGYY)

Report from: Monday, August 15, 2022 5:45 PM CDT
Current time: Monday, August 15, 2022 7:48 PM CDT

Nearby weather
Weather history
Weather forecast

Temperature22.0°C (71.6°F)
Dew point17.0°C (62.6°F)
Winds 10 kts (5.1 m/s, 11.5 mph) North-Northeast (30°)
Visibility10 mi. (16.1 km)
Clouds Sky clear
Altimeter30.07 in.Hg (1018 mB)
Relative humidity73 %
Density altitude912 ft. (278 m)
Flight conditions Visual Meteorological Conditions
Raw dataKGYY 152245Z 03010KT 10SM CLR 22/17 A3007
An error has occurred. This application may no longer respond until reloaded. Reload 🗙